Time;durP1;ratioP1;P1;durP2;ratioP2;P2;SDS_P1;SDS_P2;PMS_P1;PMS_P2;Temp;Humidity;BMP_temperature;BMP_pressure;BME280_temperature;BME280_humidity;BME280_pressure;Samples;Min_cycle;Max_cycle;Signal;HPM_P1;HPM_P2
2021/05/06 00:32:16;;;;;;;1.92;0.80;;;8.80;58.10;;;;;;5040012;28;20476;-62
2021/05/06 00:34:49;;;;;;;1.77;0.90;;;8.80;58.20;;;;;;5038969;28;20116;-63
2021/05/06 00:37:17;;;;;;;2.88;1.00;;;8.90;58.30;;;;;;5039697;28;20125;-63
2021/05/06 00:39:46;;;;;;;2.33;1.15;;;8.80;58.20;;;;;;5038148;28;20484;-63
2021/05/06 00:42:30;;;;;;;3.83;0.85;;;8.80;58.30;;;;;;5038672;28;20079;-63
2021/05/06 00:58:56;;;;;;;2.85;0.90;;;8.80;58.10;;;;;;5038804;28;20032;-63
2021/05/06 01:07:30;;;;;;;1.63;0.88;;;8.90;58.10;;;;;;4996639;28;20034;-64
2021/05/06 01:12:30;;;;;;;1.42;0.70;;;8.90;58.10;;;;;;5017497;28;20047;-63
2021/05/06 01:15:02;;;;;;;2.75;0.90;;;8.80;58.00;;;;;;5039331;28;20057;-63
2021/05/06 01:17:32;;;;;;;1.90;1.00;;;8.90;58.00;;;;;;5039655;28;20096;-63
2021/05/06 01:20:03;;;;;;;1.40;0.85;;;8.90;58.00;;;;;;5039540;28;20064;-64
2021/05/06 01:22:31;;;;;;;2.45;1.10;;;8.90;58.10;;;;;;5038266;28;20025;-63
2021/05/06 01:25:00;;;;;;;1.98;0.88;;;8.90;58.10;;;;;;5045849;28;20054;-63
2021/05/06 01:32:53;;;;;;;1.95;1.00;;;8.90;58.10;;;;;;5037519;28;20048;-64
2021/05/06 01:35:35;;;;;;;1.67;1.00;;;8.90;58.10;;;;;;5035626;28;20460;-63
2021/05/06 01:38:36;;;;;;;4.15;1.10;;;8.90;58.10;;;;;;5036722;28;20558;-64
2021/05/06 01:44:07;;;;;;;2.45;0.77;;;8.90;58.20;;;;;;5006488;28;20026;-64
2021/05/06 02:00:30;;;;;;;2.03;0.75;;;8.90;58.20;;;;;;5034469;28;20411;-67
2021/05/06 02:02:58;;;;;;;;;;;8.90;58.30;;;;;;5044239;28;20039;-62
2021/05/06 02:05:29;;;;;;;1.15;0.70;;;8.90;58.40;;;;;;5035568;28;19917;-63
2021/05/06 02:07:59;;;;;;;3.22;0.80;;;8.90;58.20;;;;;;5038044;28;20033;-64
2021/05/06 02:10:30;;;;;;;1.85;0.93;;;9.00;58.30;;;;;;5035088;28;20029;-63
2021/05/06 02:12:58;;;;;;;6.47;1.02;;;8.90;58.30;;;;;;5037099;28;20447;-63
2021/05/06 02:17:59;;;;;;;2.20;0.80;;;9.00;58.60;;;;;;5037717;28;20489;-64
2021/05/06 02:20:29;;;;;;;2.90;0.90;;;9.00;58.50;;;;;;5037981;28;20504;-64
2021/05/06 02:23:02;;;;;;;1.70;0.80;;;9.00;58.40;;;;;;5037665;28;20126;-62
2021/05/06 02:25:33;;;;;;;2.45;1.00;;;9.00;58.50;;;;;;5037958;28;20025;-64
2021/05/06 02:28:01;;;;;;;2.42;1.23;;;9.00;58.50;;;;;;5038324;28;20041;-64
2021/05/06 02:30:31;;;;;;;2.42;0.90;;;9.00;58.60;;;;;;5036604;28;20045;-63
2021/05/06 02:33:01;;;;;;;3.08;0.98;;;9.00;58.60;;;;;;5037533;28;20033;-63
2021/05/06 02:35:34;;;;;;;2.42;0.90;;;9.10;58.60;;;;;;5036615;28;20033;-63
2021/05/06 02:38:00;;;;;;;5.28;1.23;;;9.00;58.60;;;;;;5037391;28;20041;-62
2021/05/06 02:40:26;;;;;;;2.08;1.48;;;9.00;58.50;;;;;;5036681;28;20075;-65
2021/05/06 02:42:56;;;;;;;2.55;1.60;;;9.00;58.60;;;;;;5035649;28;20041;-62
2021/05/06 02:45:29;;;;;;;1.25;1.00;;;9.00;58.70;;;;;;5033808;28;20034;-65
2021/05/06 02:47:59;;;;;;;1.85;0.95;;;9.00;58.70;;;;;;5037026;28;20128;-63
2021/05/06 02:50:27;;;;;;;3.50;1.00;;;9.00;58.70;;;;;;5036811;28;20062;-63
2021/05/06 02:53:04;;;;;;;2.10;1.02;;;9.00;58.80;;;;;;5035632;28;20159;-62
2021/05/06 02:55:45;;;;;;;2.05;0.82;;;9.10;59.00;;;;;;5037229;28;20060;-65
2021/05/06 02:58:22;;;;;;;2.28;0.80;;;9.00;59.10;;;;;;5036472;28;20030;-63
2021/05/06 03:03:44;;;;;;;3.05;1.08;;;9.10;59.20;;;;;;5040015;28;20064;-63
2021/05/06 03:06:17;;;;;;;3.22;1.02;;;9.10;59.30;;;;;;5039365;28;20522;-63
2021/05/06 03:08:49;;;;;;;1.40;0.90;;;9.10;59.20;;;;;;5041650;28;20402;-63
2021/05/06 03:24:35;;;;;;;2.10;1.17;;;9.00;60.20;;;;;;5041615;28;20094;-63
2021/05/06 03:27:07;;;;;;;2.20;0.80;;;9.00;59.50;;;;;;5041502;28;20052;-64
2021/05/06 03:29:37;;;;;;;3.92;0.93;;;9.00;59.60;;;;;;5040403;28;20480;-64
2021/05/06 03:32:21;;;;;;;5.07;1.17;;;9.00;59.60;;;;;;5039509;28;20052;-64
2021/05/06 03:44:05;;;;;;;1.63;0.70;;;9.00;59.60;;;;;;5040516;28;20039;-63
2021/05/06 04:17:24;;;;;;;4.37;0.80;;;8.90;59.20;;;;;;5037842;28;20040;-63
2021/05/06 04:27:11;;;;;;;6.43;1.40;;;8.90;59.30;;;;;;5037225;28;20036;-63
2021/05/06 04:38:05;;;;;;;5.47;1.23;;;8.90;59.20;;;;;;5040105;28;20086;-62
2021/05/06 04:46:39;;;;;;;2.63;1.20;;;8.90;59.40;;;;;;5038407;28;20060;-64
2021/05/06 04:57:04;;;;;;;3.47;1.10;;;8.90;59.50;;;;;;5038636;28;20022;-64
2021/05/06 05:05:10;;;;;;;4.28;1.08;;;8.90;59.50;;;;;;5038282;28;20530;-64
2021/05/06 05:07:40;;;;;;;6.20;1.40;;;8.90;59.40;;;;;;5039476;28;20036;-63
2021/05/06 05:13:20;;;;;;;7.28;3.70;;;9.00;59.50;;;;;;5022278;28;20037;-65
2021/05/06 05:23:24;;;;;;;4.32;1.33;;;9.00;59.40;;;;;;5038682;28;20021;-64
2021/05/06 05:23:56;;;;;;;3.22;1.48;;;9.10;59.40;;;;;;5035498;28;20428;-65
2021/05/06 05:26:26;;;;;;;6.25;1.65;;;9.10;59.30;;;;;;5035752;28;20524;-64
2021/05/06 05:28:54;;;;;;;4.85;1.20;;;9.10;59.30;;;;;;5038801;28;20039;-65
2021/05/06 05:31:25;;;;;;;3.47;1.35;;;9.10;59.20;;;;;;5038846;28;20413;-64
2021/05/06 05:34:00;;;;;;;4.55;1.50;;;9.20;59.30;;;;;;5037675;28;20033;-63
2021/05/06 05:36:31;;;;;;;5.25;1.60;;;9.20;59.20;;;;;;5036448;28;20040;-62
2021/05/06 05:39:24;;;;;;;6.47;2.53;;;9.20;59.20;;;;;;5038152;28;20037;-63
2021/05/06 05:47:57;;;;;;;11.80;2.00;;;9.40;59.10;;;;;;5038169;28;20528;-64
2021/05/06 05:55:27;;;;;;;5.28;1.30;;;9.50;58.60;;;;;;5038762;28;20067;-65
2021/05/06 05:57:55;;;;;;;5.50;1.30;;;9.50;58.50;;;;;;5034061;28;20049;-64
2021/05/06 06:00:23;;;;;;;3.38;0.90;;;9.60;58.50;;;;;;5035870;28;20550;-65
2021/05/06 06:02:49;;;;;;;5.43;1.10;;;9.60;58.40;;;;;;5037200;28;20033;-64
2021/05/06 06:05:17;;;;;;;6.13;1.08;;;9.70;58.40;;;;;;5037901;28;20022;-64
2021/05/06 06:07:44;;;;;;;1.67;1.25;;;9.70;58.20;;;;;;5037072;28;20044;-64
2021/05/06 06:10:12;;;;;;;5.22;1.40;;;9.80;58.20;;;;;;5037806;28;20041;-64
2021/05/06 06:12:43;;;;;;;3.97;1.30;;;9.80;58.20;;;;;;5035004;28;20570;-63
2021/05/06 06:18:11;;;;;;;2.25;0.98;;;9.90;58.00;;;;;;5011491;28;20516;-65
2021/05/06 06:20:44;;;;;;;2.42;1.20;;;10.00;57.80;;;;;;5037058;28;20113;-64
2021/05/06 06:23:12;;;;;;;4.60;1.13;;;10.00;57.70;;;;;;5037685;28;20539;-64
2021/05/06 06:25:39;;;;;;;4.60;0.90;;;10.00;57.60;;;;;;5037858;28;20037;-64
2021/05/06 06:28:15;;;;;;;7.70;0.93;;;10.10;57.60;;;;;;5037744;28;20040;-64
2021/05/06 06:30:46;;;;;;;5.75;0.98;;;10.10;57.50;;;;;;5038302;28;20420;-63
2021/05/06 06:33:15;;;;;;;4.03;1.05;;;10.10;57.40;;;;;;5036795;28;20280;-63
2021/05/06 06:35:40;;;;;;;7.32;2.47;;;10.20;57.40;;;;;;5036897;28;20497;-65
2021/05/06 06:38:13;;;;;;;6.63;2.90;;;10.20;57.40;;;;;;5036889;28;20047;-65
2021/05/06 06:40:41;;;;;;;4.72;1.38;;;10.20;57.30;;;;;;5036893;28;20121;-63
2021/05/06 06:43:11;;;;;;;5.25;1.30;;;10.20;57.10;;;;;;5043907;28;20083;-64
2021/05/06 06:45:39;;;;;;;10.05;2.22;;;10.20;57.10;;;;;;5034977;28;20060;-65
2021/05/06 06:48:12;;;;;;;5.15;2.00;;;10.20;57.20;;;;;;5037084;28;20060;-64
2021/05/06 06:50:42;;;;;;;5.03;1.60;;;10.30;57.20;;;;;;5036981;28;20029;-63
2021/05/06 06:53:13;;;;;;;4.78;1.20;;;10.30;57.10;;;;;;5036574;28;20071;-64
2021/05/06 06:55:39;;;;;;;2.58;1.30;;;10.30;57.00;;;;;;5036271;28;20021;-64
2021/05/06 06:58:16;;;;;;;5.80;1.45;;;10.40;57.00;;;;;;5034498;28;20087;-65
2021/05/06 07:00:51;;;;;;;3.63;1.10;;;10.40;56.70;;;;;;5036708;28;20061;-64
2021/05/06 07:03:22;;;;;;;5.07;1.85;;;10.50;56.70;;;;;;5026932;28;20033;-64
2021/05/06 07:05:52;;;;;;;2.72;1.30;;;10.50;56.80;;;;;;5036468;28;20436;-60
2021/05/06 07:08:26;;;;;;;7.88;1.55;;;10.50;56.70;;;;;;5036765;28;20119;-64
2021/05/06 07:10:55;;;;;;;5.32;1.38;;;10.60;56.70;;;;;;5034908;28;20307;-63
2021/05/06 07:13:28;;;;;;;5.78;1.77;;;10.60;56.60;;;;;;5036686;28;20037;-64
2021/05/06 07:16:00;;;;;;;2.78;1.05;;;10.70;56.60;;;;;;5036625;28;20029;-64
2021/05/06 07:18:32;;;;;;;7.35;1.40;;;10.80;56.60;;;;;;5037196;28;20033;-63
2021/05/06 07:21:01;;;;;;;4.15;1.60;;;10.80;56.40;;;;;;5036752;28;20056;-64
2021/05/06 07:23:27;;;;;;;2.78;1.40;;;10.90;56.20;;;;;;5036871;28;20060;-64
2021/05/06 07:25:57;;;;;;;6.63;1.90;;;10.90;56.00;;;;;;5037020;28;20324;-64
2021/05/06 07:28:30;;;;;;;2.20;1.15;;;11.00;56.00;;;;;;5036907;28;20033;-63
2021/05/06 07:30:57;;;;;;;2.53;1.73;;;11.00;55.70;;;;;;5035268;28;20474;-64
2021/05/06 07:33:30;;;;;;;8.90;1.85;;;11.10;55.90;;;;;;5033944;28;20029;-64
2021/05/06 07:35:56;;;;;;;3.85;1.40;;;11.20;55.70;;;;;;5034537;28;20037;-64
2021/05/06 07:38:27;;;;;;;3.05;0.98;;;11.20;55.70;;;;;;5035875;28;20372;-64
2021/05/06 07:40:54;;;;;;;3.28;1.42;;;11.30;55.70;;;;;;5036859;28;20100;-64
2021/05/06 07:43:22;;;;;;;4.72;1.70;;;11.40;55.70;;;;;;5036055;28;20033;-64
2021/05/06 07:45:52;;;;;;;2.50;0.90;;;11.40;55.50;;;;;;5033930;28;20520;-64
2021/05/06 07:48:23;;;;;;;5.65;1.75;;;11.50;55.60;;;;;;5037115;28;20505;-65
2021/05/06 07:50:51;;;;;;;3.50;1.70;;;11.60;55.60;;;;;;5040104;28;20455;-64
2021/05/06 07:53:25;;;;;;;6.72;1.30;;;11.70;55.60;;;;;;5038900;28;20033;-64
2021/05/06 07:55:55;;;;;;;3.70;1.58;;;11.70;55.40;;;;;;5039527;28;20409;-64
2021/05/06 07:58:27;;;;;;;5.32;2.08;;;11.80;55.20;;;;;;5038589;28;20033;-67
2021/05/06 08:00:58;;;;;;;4.93;1.33;;;11.90;55.10;;;;;;5039804;28;20930;-65
2021/05/06 08:03:26;;;;;;;6.63;1.20;;;12.00;55.00;;;;;;5039920;28;20264;-64
2021/05/06 08:05:56;;;;;;;4.72;1.40;;;12.10;54.70;;;;;;5038270;28;20037;-64
2021/05/06 08:08:25;;;;;;;6.35;3.15;;;12.20;54.70;;;;;;5038420;28;20120;-64
2021/05/06 08:10:55;;;;;;;6.00;1.23;;;12.30;54.90;;;;;;5036596;28;20104;-64
2021/05/06 08:13:23;;;;;;;3.67;1.10;;;12.40;54.70;;;;;;5038385;28;20026;-64
2021/05/06 08:15:52;;;;;;;4.28;1.10;;;12.40;54.10;;;;;;5039321;28;20068;-64
2021/05/06 08:18:25;;;;;;;3.85;1.20;;;12.50;53.10;;;;;;5039466;28;20387;-65
2021/05/06 08:20:53;;;;;;;6.13;1.00;;;12.50;53.00;;;;;;5039992;28;20033;-63
2021/05/06 08:23:21;;;;;;;3.95;1.20;;;12.60;52.50;;;;;;5039463;28;20037;-64
2021/05/06 08:25:51;;;;;;;5.03;1.30;;;12.60;52.90;;;;;;5038308;28;20040;-62
2021/05/06 08:28:17;;;;;;;3.50;1.05;;;12.70;52.80;;;;;;5039206;28;20036;-64
2021/05/06 08:30:50;;;;;;;4.22;1.30;;;12.70;53.00;;;;;;5039151;28;20049;-64
2021/05/06 08:33:18;;;;;;;2.95;1.02;;;12.80;53.00;;;;;;5037562;28;20034;-65
2021/05/06 08:35:44;;;;;;;3.45;1.33;;;12.90;52.10;;;;;;5039080;28;20026;-64
2021/05/06 08:38:14;;;;;;;4.57;1.05;;;12.90;52.20;;;;;;5037048;28;20156;-64
2021/05/06 08:40:45;;;;;;;3.60;1.27;;;12.90;52.00;;;;;;5038379;28;20030;-63
2021/05/06 08:43:12;;;;;;;5.65;2.25;;;12.90;51.90;;;;;;5037814;28;20037;-64
2021/05/06 08:45:48;;;;;;;7.97;3.85;;;13.00;52.00;;;;;;5039034;28;20271;-64
2021/05/06 08:48:17;;;;;;;8.98;4.20;;;13.00;52.00;;;;;;5039361;28;20108;-64
2021/05/06 08:50:44;;;;;;;3.17;1.52;;;13.00;51.40;;;;;;5038530;28;20473;-64
2021/05/06 08:53:13;;;;;;;9.80;3.78;;;13.10;52.00;;;;;;5037809;28;20521;-65
2021/05/06 08:55:41;;;;;;;5.30;1.77;;;13.10;51.40;;;;;;5045757;28;20520;-66
2021/05/06 08:58:07;;;;;;;9.82;4.53;;;13.10;51.40;;;;;;5037642;28;20539;-64
2021/05/06 09:00:35;;;;;;;29.35;14.88;;;13.20;51.60;;;;;;5035317;28;20263;-63
2021/05/06 09:03:01;;;;;;;7.47;2.63;;;13.20;51.70;;;;;;5038596;28;20038;-64
2021/05/06 09:05:26;;;;;;;5.07;1.80;;;13.30;51.60;;;;;;5038071;28;20404;-64
2021/05/06 09:07:54;;;;;;;3.58;1.77;;;13.30;51.10;;;;;;5038171;28;20036;-64
2021/05/06 09:10:39;;;;;;;6.82;4.35;;;13.40;51.00;;;;;;5036363;28;20037;-64
2021/05/06 09:13:30;;;;;;;10.93;6.78;;;13.40;50.90;;;;;;5036111;28;20104;-64
2021/05/06 09:16:00;;;;;;;5.65;4.05;;;13.50;50.90;;;;;;5038748;28;20045;-64
2021/05/06 09:18:47;;;;;;;5.28;2.30;;;13.50;51.20;;;;;;5037864;28;20022;-62
2021/05/06 09:21:24;;;;;;;3.90;1.63;;;13.50;49.90;;;;;;5037401;28;20033;-64
2021/05/06 09:24:11;;;;;;;3.08;1.13;;;13.50;49.80;;;;;;5038506;28;20048;-64
2021/05/06 09:26:40;;;;;;;5.07;1.35;;;13.50;49.50;;;;;;5038328;28;20025;-64
2021/05/06 09:29:10;;;;;;;3.60;0.90;;;13.50;49.70;;;;;;5038319;28;20080;-64
2021/05/06 09:31:40;;;;;;;6.82;1.58;;;13.40;49.90;;;;;;5037793;28;20034;-64
2021/05/06 09:34:14;;;;;;;3.85;1.30;;;13.40;49.80;;;;;;5037757;28;20041;-64
2021/05/06 09:36:46;;;;;;;5.90;1.10;;;13.30;49.50;;;;;;5037277;28;20489;-63
2021/05/06 09:39:14;;;;;;;2.15;0.98;;;13.30;50.10;;;;;;5036960;28;20037;-65
2021/05/06 09:41:39;;;;;;;3.72;1.15;;;13.20;50.50;;;;;;5037979;28;20029;-64
2021/05/06 09:44:12;;;;;;;7.10;2.58;;;13.10;50.50;;;;;;5036961;28;20040;-64
2021/05/06 09:46:43;;;;;;;5.43;3.38;;;13.10;50.80;;;;;;5032722;28;20040;-64
2021/05/06 09:49:20;;;;;;;2.67;1.73;;;13.00;51.30;;;;;;5035042;28;20047;-64
2021/05/06 09:51:57;;;;;;;5.70;1.70;;;13.00;52.20;;;;;;5036873;28;20037;-64
2021/05/06 09:54:29;;;;;;;3.83;1.70;;;12.90;52.30;;;;;;5036813;28;20026;-63
2021/05/06 09:57:00;;;;;;;3.45;1.25;;;12.90;52.70;;;;;;5037169;28;20116;-65
2021/05/06 09:59:31;;;;;;;5.65;2.58;;;12.80;52.90;;;;;;5036832;28;20036;-64
2021/05/06 10:02:12;;;;;;;4.97;2.72;;;12.80;53.40;;;;;;5037198;28;20045;-65
2021/05/06 10:04:40;;;;;;;4.93;1.98;;;12.70;54.50;;;;;;5037370;28;20108;-64
2021/05/06 10:07:26;;;;;;;3.17;1.35;;;12.70;54.60;;;;;;5037670;28;20034;-64
2021/05/06 10:10:05;;;;;;;3.08;1.60;;;12.60;55.00;;;;;;5036557;28;20033;-64
2021/05/06 10:12:41;;;;;;;4.10;1.65;;;12.60;55.30;;;;;;5032798;28;20142;-64
2021/05/06 10:15:13;;;;;;;3.55;1.77;;;12.50;56.00;;;;;;5038235;28;20041;-64
2021/05/06 10:17:43;;;;;;;3.88;1.52;;;12.50;56.10;;;;;;5034974;28;20025;-64
2021/05/06 10:20:14;;;;;;;3.80;1.40;;;12.40;56.00;;;;;;5037304;28;20029;-64
2021/05/06 10:22:43;;;;;;;2.78;1.60;;;12.40;56.60;;;;;;5037528;28;20033;-64
2021/05/06 10:25:14;;;;;;;2.90;1.25;;;12.30;56.70;;;;;;5036558;28;20025;-65
2021/05/06 10:27:42;;;;;;;5.72;1.25;;;12.30;56.50;;;;;;5038243;28;20461;-64
2021/05/06 10:30:11;;;;;;;3.28;1.27;;;12.20;56.70;;;;;;5036764;28;20085;-64
2021/05/06 10:32:37;;;;;;;2.53;1.42;;;12.20;57.10;;;;;;5036658;28;20022;-64
2021/05/06 10:35:09;;;;;;;3.22;1.52;;;12.10;57.20;;;;;;5035765;28;20095;-63
2021/05/06 10:37:36;;;;;;;2.47;1.30;;;12.00;57.80;;;;;;5036929;28;20025;-63
2021/05/06 10:40:25;;;;;;;3.15;1.27;;;12.00;57.80;;;;;;5036083;28;20037;-65
2021/05/06 10:42:54;;;;;;;2.10;1.42;;;12.00;58.90;;;;;;5035257;28;20028;-65
2021/05/06 10:45:23;;;;;;;3.17;1.30;;;12.00;58.60;;;;;;5035410;28;20021;-64
2021/05/06 10:47:54;;;;;;;5.88;1.50;;;12.00;58.90;;;;;;5043622;28;20334;-64
2021/05/06 10:50:38;;;;;;;3.88;1.38;;;12.00;59.00;;;;;;5035861;28;20032;-64
2021/05/06 10:53:08;;;;;;;3.35;1.02;;;12.00;59.60;;;;;;5035281;28;20042;-64
2021/05/06 10:55:48;;;;;;;3.53;1.10;;;11.90;59.10;;;;;;5035733;28;20033;-64
2021/05/06 10:58:30;;;;;;;2.95;1.23;;;11.90;59.40;;;;;;5036453;28;20043;-64
2021/05/06 11:01:12;;;;;;;3.88;1.40;;;11.80;59.60;;;;;;5036304;28;20439;-64
2021/05/06 11:04:00;;;;;;;2.38;1.30;;;11.80;59.90;;;;;;5037559;28;20025;-64
2021/05/06 11:06:42;;;;;;;2.75;1.10;;;11.70;59.80;;;;;;5037168;28;20029;-64
2021/05/06 11:09:47;;;;;;;2.28;1.27;;;11.70;60.80;;;;;;5035798;28;20550;-64
2021/05/06 11:12:21;;;;;;;2.90;1.15;;;11.60;61.50;;;;;;4936703;29;20043;-65
2021/05/06 11:15:06;;;;;;;2.55;1.20;;;11.50;60.30;;;;;;4937435;29;20559;-63
2021/05/06 11:17:37;;;;;;;;;;;11.50;61.30;;;;;;5001169;28;20032;-64
2021/05/06 11:20:29;;;;;;;1.92;1.15;;;11.40;60.50;;;;;;5036251;28;19936;-64
2021/05/06 11:22:58;;;;;;;2.72;1.27;;;11.40;61.90;;;;;;5036942;28;20063;-64
2021/05/06 11:28:04;;;;;;;2.75;1.27;;;11.30;61.70;;;;;;5041428;28;20447;-64
2021/05/06 11:30:47;;;;;;;2.70;1.30;;;11.30;62.20;;;;;;5040432;28;20034;-63
2021/05/06 11:33:28;;;;;;;3.15;1.25;;;11.30;61.90;;;;;;5038974;28;20116;-64
2021/05/06 11:36:17;;;;;;;4.18;1.25;;;11.20;62.50;;;;;;5040677;28;20056;-64
2021/05/06 11:38:50;;;;;;;2.08;1.10;;;11.20;61.70;;;;;;5040167;28;20037;-64
2021/05/06 11:41:31;;;;;;;3.35;1.40;;;11.10;61.50;;;;;;5039795;28;20112;-64
2021/05/06 11:44:04;;;;;;;1.20;1.02;;;11.10;63.30;;;;;;5040701;28;20540;-64
2021/05/06 11:46:39;;;;;;;3.15;1.23;;;11.10;62.50;;;;;;5039068;28;20546;-64
2021/05/06 11:49:10;;;;;;;;;;;11.00;63.40;;;;;;5038578;28;20037;-65
2021/05/06 11:51:45;;;;;;;4.80;1.60;;;11.00;64.10;;;;;;5039899;28;20332;-64
2021/05/06 11:54:14;;;;;;;4.47;1.30;;;11.00;63.60;;;;;;5038706;28;20059;-65
2021/05/06 11:56:53;;;;;;;2.50;1.20;;;11.00;63.40;;;;;;5039478;28;20042;-64
2021/05/06 11:59:25;;;;;;;4.05;1.33;;;11.00;64.10;;;;;;5039188;28;20504;-65
2021/05/06 12:02:04;;;;;;;1.75;1.63;;;11.00;64.30;;;;;;5039206;28;20033;-64
2021/05/06 12:04:32;;;;;;;1.52;1.40;;;11.00;64.50;;;;;;5038573;28;20025;-65
2021/05/06 12:07:14;;;;;;;4.10;1.52;;;11.00;64.60;;;;;;5038846;28;20029;-64
2021/05/06 12:09:42;;;;;;;3.30;1.35;;;11.00;65.90;;;;;;5039859;28;20033;-64
2021/05/06 12:12:11;;;;;;;2.97;1.00;;;11.00;64.60;;;;;;5037866;28;20458;-62
2021/05/06 12:14:40;;;;;;;3.70;1.10;;;11.00;64.80;;;;;;5039406;28;20033;-65
2021/05/06 12:17:17;;;;;;;2.85;1.02;;;10.90;64.90;;;;;;5039378;28;20057;-65
2021/05/06 12:19:51;;;;;;;1.08;0.80;;;10.90;65.50;;;;;;5039248;28;20032;-63
2021/05/06 12:22:21;;;;;;;1.42;0.93;;;10.80;65.60;;;;;;5036967;28;20037;-64
2021/05/06 12:24:58;;;;;;;1.58;0.98;;;10.70;65.90;;;;;;5038281;28;20037;-64
2021/05/06 12:27:31;;;;;;;2.35;1.00;;;10.80;67.10;;;;;;5039737;28;20109;-64
2021/05/06 12:30:07;;;;;;;2.88;1.02;;;10.70;67.10;;;;;;5039587;28;20382;-64
2021/05/06 12:32:37;;;;;;;2.58;1.48;;;10.70;66.90;;;;;;5045926;28;20065;-64
2021/05/06 12:35:06;;;;;;;1.60;1.50;;;10.70;67.00;;;;;;5038939;28;20466;-65
2021/05/06 12:37:37;;;;;;;7.60;4.30;;;10.70;67.30;;;;;;5038565;28;20032;-65
2021/05/06 12:40:09;;;;;;;4.15;2.50;;;10.70;67.60;;;;;;5039023;28;20038;-63
2021/05/06 12:42:40;;;;;;;1.42;1.33;;;10.70;67.10;;;;;;5037390;28;20114;-65
2021/05/06 12:45:31;;;;;;;3.55;2.00;;;10.70;67.10;;;;;;5036949;28;20036;-65
2021/05/06 12:47:57;;;;;;;1.50;1.00;;;10.70;68.90;;;;;;5039000;28;20029;-64
2021/05/06 12:50:28;;;;;;;1.83;1.15;;;10.70;67.30;;;;;;5038116;28;20022;-65
2021/05/06 12:53:06;;;;;;;1.48;0.80;;;10.60;67.80;;;;;;5038912;28;20095;-63
2021/05/06 12:55:48;;;;;;;1.77;1.02;;;10.60;68.90;;;;;;5037884;28;20519;-66
2021/05/06 12:58:27;;;;;;;6.38;1.75;;;10.60;68.70;;;;;;5037593;28;20033;-65
2021/05/06 13:00:54;;;;;;;2.47;1.20;;;10.50;68.20;;;;;;5038499;28;20021;-65
2021/05/06 13:03:46;;;;;;;3.10;2.13;;;10.50;68.10;;;;;;5038297;28;20060;-64
2021/05/06 13:06:20;;;;;;;2.75;1.90;;;10.50;69.90;;;;;;5038775;28;20051;-64
2021/05/06 13:08:50;;;;;;;2.28;1.70;;;10.40;68.80;;;;;;5034231;28;20030;-65
2021/05/06 13:11:24;;;;;;;4.78;1.55;;;10.40;68.80;;;;;;5030158;28;20124;-65
2021/05/06 13:13:53;;;;;;;13.52;6.82;;;10.40;69.50;;;;;;5033134;28;20086;-63
2021/05/06 13:16:41;;;;;;;1.70;1.50;;;10.40;69.00;;;;;;5038550;28;20042;-65
2021/05/06 13:19:10;;;;;;;1.67;1.30;;;10.40;70.20;;;;;;5035715;28;20562;-65
2021/05/06 13:21:51;;;;;;;2.35;1.50;;;10.30;68.80;;;;;;5036761;28;20030;-65
2021/05/06 13:24:22;;;;;;;1.65;1.30;;;10.30;70.00;;;;;;5034987;28;20692;-64
2021/05/06 13:26:55;;;;;;;2.35;1.55;;;10.20;69.60;;;;;;5037278;28;20038;-63
2021/05/06 13:29:25;;;;;;;2.60;1.70;;;10.20;69.70;;;;;;5038116;28;20026;-63
2021/05/06 13:31:55;;;;;;;3.63;1.40;;;10.20;70.00;;;;;;5037093;28;20041;-64
2021/05/06 13:34:27;;;;;;;2.75;1.60;;;10.10;70.60;;;;;;5037715;28;20068;-64
2021/05/06 13:37:01;;;;;;;1.80;1.33;;;10.10;70.40;;;;;;5037698;28;20033;-64
2021/05/06 13:39:29;;;;;;;2.95;1.83;;;10.10;71.60;;;;;;5038725;28;20040;-65
2021/05/06 13:41:57;;;;;;;2.10;1.50;;;10.00;70.20;;;;;;5034547;28;20052;-64
2021/05/06 13:44:28;;;;;;;2.53;1.60;;;10.00;70.50;;;;;;5037912;28;20038;-64
2021/05/06 13:46:58;;;;;;;3.17;2.03;;;9.90;71.00;;;;;;5037908;28;20534;-64
2021/05/06 13:49:28;;;;;;;2.35;1.83;;;10.00;71.30;;;;;;5036819;28;20048;-63
2021/05/06 13:52:01;;;;;;;1.67;1.58;;;9.90;71.70;;;;;;5037973;28;20041;-63
2021/05/06 13:54:31;;;;;;;4.43;3.20;;;10.00;71.60;;;;;;5036600;28;20029;-63
2021/05/06 13:57:04;;;;;;;5.78;4.20;;;9.90;71.60;;;;;;5037229;28;20042;-64
2021/05/06 13:59:37;;;;;;;7.97;6.10;;;9.90;71.80;;;;;;5043826;28;20046;-64
2021/05/06 14:02:08;;;;;;;3.33;2.40;;;9.90;72.10;;;;;;5037187;28;20116;-64
2021/05/06 14:04:39;;;;;;;6.05;3.63;;;9.90;72.30;;;;;;5036989;28;20034;-63
2021/05/06 14:07:09;;;;;;;3.38;2.15;;;9.90;72.50;;;;;;5035746;28;20121;-63
2021/05/06 14:09:39;;;;;;;3.13;2.50;;;9.90;72.10;;;;;;5037369;28;20396;-64
2021/05/06 14:12:09;;;;;;;3.17;2.00;;;9.90;71.90;;;;;;5035213;28;20045;-63
2021/05/06 14:14:36;;;;;;;4.88;2.70;;;9.90;72.20;;;;;;5035249;28;20040;-64
2021/05/06 14:17:04;;;;;;;2.78;2.35;;;9.90;72.50;;;;;;5042658;28;20524;-62
2021/05/06 14:19:30;;;;;;;10.65;5.47;;;9.90;72.20;;;;;;5030525;28;20037;-63
2021/05/06 14:21:56;;;;;;;14.80;7.63;;;9.90;72.50;;;;;;5033141;28;20029;-64
2021/05/06 14:24:27;;;;;;;8.07;4.75;;;9.80;72.60;;;;;;5042328;28;20125;-64
2021/05/06 14:26:57;;;;;;;3.25;2.33;;;9.90;73.00;;;;;;5033044;28;20095;-63
2021/05/06 14:29:28;;;;;;;4.80;2.20;;;9.80;72.60;;;;;;5035069;28;20034;-64
2021/05/06 14:31:56;;;;;;;4.60;2.25;;;9.90;73.00;;;;;;5036216;28;20125;-63
2021/05/06 14:34:28;;;;;;;2.80;2.58;;;9.80;72.50;;;;;;5035635;28;20591;-64
2021/05/06 14:36:57;;;;;;;4.25;2.65;;;9.80;72.90;;;;;;5034843;28;20536;-62
2021/05/06 14:39:22;;;;;;;5.78;3.10;;;9.80;73.00;;;;;;5036304;28;20037;-63
2021/05/06 14:41:50;;;;;;;4.80;3.30;;;9.80;73.00;;;;;;5033896;28;20418;-64
2021/05/06 14:44:18;;;;;;;3.75;2.90;;;9.80;73.00;;;;;;5033292;28;20029;-62
2021/05/06 14:46:46;;;;;;;7.47;6.20;;;9.80;72.90;;;;;;5031191;28;20044;-64
2021/05/06 14:49:16;;;;;;;8.65;7.00;;;9.80;73.30;;;;;;5032308;28;20038;-64
2021/05/06 14:51:44;;;;;;;14.13;9.95;;;9.80;73.30;;;;;;5032030;28;20041;-62
2021/05/06 14:54:15;;;;;;;6.53;3.95;;;9.80;73.80;;;;;;5033239;28;20413;-64
2021/05/06 14:56:43;;;;;;;5.45;4.00;;;9.80;73.50;;;;;;5033443;28;20041;-63
2021/05/06 14:59:10;;;;;;;4.32;2.53;;;9.80;73.40;;;;;;5032681;28;20041;-63
2021/05/06 15:01:38;;;;;;;6.93;2.90;;;9.80;73.30;;;;;;5039902;28;20080;-63
2021/05/06 15:04:06;;;;;;;5.57;3.75;;;9.80;73.30;;;;;;5038728;28;20424;-64
2021/05/06 15:06:34;;;;;;;4.75;3.22;;;9.80;73.50;;;;;;5039092;28;20500;-63
2021/05/06 15:09:07;;;;;;;6.40;3.00;;;9.80;73.70;;;;;;5037640;28;20045;-63
2021/05/06 15:11:35;;;;;;;4.55;2.60;;;9.80;74.30;;;;;;5040618;28;20135;-63
2021/05/06 15:14:04;;;;;;;2.90;2.20;;;9.80;74.40;;;;;;5038338;28;20060;-64
2021/05/06 15:16:34;;;;;;;3.25;2.35;;;9.80;74.40;;;;;;5039082;28;20104;-64
2021/05/06 15:19:00;;;;;;;3.30;1.90;;;9.80;74.30;;;;;;5041275;28;20029;-63
2021/05/06 15:21:25;;;;;;;2.83;2.13;;;9.80;74.10;;;;;;5037543;28;20111;-63
2021/05/06 15:23:54;;;;;;;2.50;2.30;;;9.80;74.00;;;;;;5039991;28;20041;-63
2021/05/06 15:26:24;;;;;;;3.63;2.28;;;9.80;74.60;;;;;;5037455;28;20043;-63
2021/05/06 15:28:54;;;;;;;3.90;2.38;;;9.80;74.40;;;;;;5035903;28;20033;-64
2021/05/06 15:31:27;;;;;;;3.03;2.40;;;9.80;74.70;;;;;;5046025;28;20427;-63
2021/05/06 15:33:53;;;;;;;2.58;1.92;;;9.80;74.90;;;;;;5039586;28;20136;-64
2021/05/06 15:36:22;;;;;;;2.42;2.00;;;9.80;74.70;;;;;;5038359;28;20131;-63
2021/05/06 15:38:53;;;;;;;2.45;2.25;;;9.80;74.70;;;;;;5039182;28;20044;-63
2021/05/06 15:41:26;;;;;;;3.60;2.30;;;9.80;75.10;;;;;;5038366;28;20041;-63
2021/05/06 15:44:00;;;;;;;3.80;2.05;;;9.80;75.30;;;;;;5038159;28;20029;-64
2021/05/06 15:46:28;;;;;;;2.88;2.45;;;9.80;75.30;;;;;;5038860;28;20041;-63
2021/05/06 15:48:56;;;;;;;4.68;2.88;;;9.80;74.80;;;;;;5038332;28;20033;-63
2021/05/06 15:51:22;;;;;;;3.72;2.42;;;9.80;75.40;;;;;;5037409;28;20072;-64
2021/05/06 15:53:50;;;;;;;2.45;1.77;;;9.80;75.00;;;;;;5036491;28;20113;-64
2021/05/06 15:56:18;;;;;;;2.90;2.38;;;9.80;75.30;;;;;;5038646;28;20059;-63
2021/05/06 15:58:48;;;;;;;2.65;2.17;;;9.80;75.10;;;;;;5037128;28;20491;-63
2021/05/06 16:01:18;;;;;;;3.28;2.65;;;9.80;75.60;;;;;;5037736;28;20516;-63
2021/05/06 16:03:52;;;;;;;3.88;2.47;;;9.80;75.80;;;;;;5037810;28;20399;-63
2021/05/06 16:06:22;;;;;;;4.72;2.35;;;9.80;75.70;;;;;;5039207;28;20038;-63
2021/05/06 16:08:50;;;;;;;4.22;2.47;;;9.80;75.70;;;;;;5038420;28;20075;-64
2021/05/06 16:11:16;;;;;;;3.72;2.75;;;9.80;75.70;;;;;;5036770;28;20131;-63
2021/05/06 16:13:42;;;;;;;3.97;2.70;;;9.80;75.40;;;;;;5034908;28;20166;-63
2021/05/06 16:16:10;;;;;;;3.83;2.50;;;9.70;75.50;;;;;;5034524;28;20032;-64
2021/05/06 16:18:44;;;;;;;4.25;2.90;;;9.70;75.50;;;;;;5038097;28;20025;-63
2021/05/06 16:21:14;;;;;;;3.60;2.53;;;9.70;76.10;;;;;;5037621;28;20036;-63
2021/05/06 16:23:40;;;;;;;4.05;3.50;;;9.80;76.20;;;;;;5033966;28;20040;-63
2021/05/06 16:26:11;;;;;;;7.32;3.72;;;9.80;76.10;;;;;;5038005;28;20040;-63
2021/05/06 16:28:38;;;;;;;8.82;4.03;;;9.80;76.30;;;;;;5039058;28;20575;-64
2021/05/06 16:31:04;;;;;;;4.88;3.30;;;9.80;76.40;;;;;;5037741;28;20523;-64